createdAt,value
2023-07-05T00:00:10.997Z,0.00
2023-07-05T00:01:13.158Z,0.00
2023-07-05T00:02:10.945Z,0.00
2023-07-05T00:03:10.886Z,0.00
2023-07-05T00:04:10.891Z,0.00
2023-07-05T00:05:10.902Z,0.00
2023-07-05T00:06:10.809Z,0.00
2023-07-05T00:07:10.764Z,0.00
2023-07-05T00:08:10.754Z,0.00
2023-07-05T00:09:10.695Z,0.00
2023-07-05T00:10:15.605Z,0.00
2023-07-05T00:11:10.733Z,0.00
2023-07-05T00:12:11.103Z,0.00
2023-07-05T00:13:10.666Z,0.00
2023-07-05T00:14:10.572Z,0.00
2023-07-05T00:15:10.558Z,0.00
2023-07-05T00:16:10.504Z,0.00
2023-07-05T00:17:10.454Z,0.00
2023-07-05T00:18:10.423Z,0.00
2023-07-05T00:19:10.465Z,0.00
2023-07-05T00:20:10.391Z,0.00
2023-07-05T00:21:10.326Z,0.00
2023-07-05T00:22:10.295Z,0.00
2023-07-05T00:23:10.270Z,0.00
2023-07-05T00:24:10.300Z,0.00
2023-07-05T00:25:10.202Z,0.00
2023-07-05T00:26:10.164Z,0.00
2023-07-05T00:27:10.136Z,0.00
2023-07-05T00:28:12.608Z,0.00
2023-07-05T00:29:10.224Z,0.00
2023-07-05T00:30:10.042Z,0.00
2023-07-05T00:31:10.108Z,0.00
2023-07-05T00:32:09.976Z,0.00
2023-07-05T00:33:09.991Z,0.00
2023-07-05T00:34:09.991Z,0.00
2023-07-05T00:35:09.878Z,0.00
2023-07-05T00:36:09.878Z,0.00
2023-07-05T00:37:09.836Z,0.00
2023-07-05T00:38:09.795Z,0.00
2023-07-05T00:39:09.787Z,0.00
2023-07-05T00:40:09.796Z,0.00
2023-07-05T00:41:09.696Z,0.00
2023-07-05T00:42:09.681Z,0.00
2023-07-05T00:43:09.652Z,0.00
2023-07-05T00:44:09.675Z,0.00
2023-07-05T00:45:09.582Z,0.00
2023-07-05T00:46:09.653Z,0.00
2023-07-05T00:47:09.513Z,0.00
2023-07-05T00:48:09.492Z,0.00
2023-07-05T00:49:09.448Z,0.00
2023-07-05T00:50:09.457Z,0.00
2023-07-05T00:51:09.388Z,0.00
2023-07-05T00:52:09.415Z,0.00
2023-07-05T00:53:09.330Z,0.00
2023-07-05T00:54:09.293Z,0.00
2023-07-05T00:55:09.261Z,0.00
2023-07-05T00:56:09.237Z,0.00
2023-07-05T00:57:09.194Z,0.00
2023-07-05T00:58:09.236Z,0.00
2023-07-05T00:59:09.210Z,0.00
2023-07-05T01:00:09.099Z,0.00
2023-07-05T01:01:09.108Z,0.00
2023-07-05T01:02:09.093Z,0.00
2023-07-05T01:03:09.072Z,0.00
2023-07-05T01:04:09.038Z,0.00
2023-07-05T01:05:09.077Z,0.00
2023-07-05T01:06:08.921Z,0.00
2023-07-05T01:07:08.909Z,0.00
2023-07-05T01:08:08.908Z,0.00
2023-07-05T01:09:08.841Z,0.00
2023-07-05T01:10:08.976Z,0.00
2023-07-05T01:11:08.754Z,0.00
2023-07-05T01:12:08.731Z,0.00
2023-07-05T01:13:08.694Z,0.00
2023-07-05T01:14:08.738Z,0.00
2023-07-05T01:15:08.647Z,0.00
2023-07-05T01:16:08.598Z,0.00
2023-07-05T01:17:08.601Z,0.00
2023-07-05T01:18:08.655Z,0.00
2023-07-05T01:19:08.509Z,0.00
2023-07-05T01:20:08.526Z,0.00
2023-07-05T01:21:08.441Z,0.00
2023-07-05T01:22:08.423Z,0.00
2023-07-05T01:23:08.406Z,0.00
2023-07-05T01:24:08.361Z,0.00
2023-07-05T01:25:08.308Z,0.00
2023-07-05T01:26:08.352Z,0.00
2023-07-05T01:27:08.252Z,0.00
2023-07-05T01:28:08.321Z,0.00
2023-07-05T01:29:08.215Z,0.00
2023-07-05T01:30:08.189Z,0.00
2023-07-05T01:31:08.191Z,0.00
2023-07-05T01:32:08.101Z,0.00
2023-07-05T01:33:08.104Z,0.00
2023-07-05T01:34:08.113Z,0.00
2023-07-05T01:35:08.037Z,0.00
2023-07-05T01:36:08.007Z,0.00
2023-07-05T01:37:07.945Z,0.00
2023-07-05T01:38:07.938Z,0.00
2023-07-05T01:39:07.951Z,0.00
2023-07-05T01:40:07.874Z,0.00
2023-07-05T01:41:07.816Z,0.00
2023-07-05T01:42:07.803Z,0.00
2023-07-05T01:43:07.763Z,0.00
2023-07-05T01:44:07.777Z,0.00
2023-07-05T01:45:07.703Z,0.00
2023-07-05T01:46:07.689Z,0.00
2023-07-05T01:47:07.671Z,0.00
2023-07-05T01:48:07.614Z,0.00
2023-07-05T01:49:07.708Z,0.00
2023-07-05T01:50:07.547Z,0.00
2023-07-05T01:51:07.519Z,0.00
2023-07-05T01:52:07.486Z,0.00
2023-07-05T01:53:07.467Z,0.00
2023-07-05T01:54:07.470Z,0.00
2023-07-05T01:55:07.412Z,0.00
2023-07-05T01:56:07.354Z,0.00
2023-07-05T01:57:07.359Z,0.00
2023-07-05T01:58:07.291Z,0.00
2023-07-05T01:59:07.259Z,0.00
2023-07-05T02:00:07.280Z,0.00
2023-07-05T02:01:07.234Z,0.00
2023-07-05T02:02:07.217Z,0.00
2023-07-05T02:03:07.218Z,0.00
2023-07-05T02:04:07.105Z,0.00
2023-07-05T02:05:07.151Z,0.00
2023-07-05T02:06:07.047Z,0.00
2023-07-05T02:07:07.039Z,0.00
2023-07-05T02:08:07.005Z,0.00
2023-07-05T02:09:06.974Z,0.00
2023-07-05T02:10:06.979Z,0.00
2023-07-05T02:11:06.899Z,0.00
2023-07-05T02:12:06.868Z,0.00
2023-07-05T02:13:06.851Z,0.00
2023-07-05T02:14:06.811Z,0.00
2023-07-05T02:15:06.768Z,0.00
2023-07-05T02:16:06.793Z,0.00
2023-07-05T02:17:06.743Z,0.00
2023-07-05T02:18:06.781Z,0.00
2023-07-05T02:19:06.668Z,0.00
2023-07-05T02:20:06.702Z,0.00
2023-07-05T02:21:06.604Z,0.00
2023-07-05T02:22:06.622Z,0.00
2023-07-05T02:23:06.545Z,0.00
2023-07-05T02:24:06.505Z,0.00
2023-07-05T02:25:06.475Z,0.00
2023-07-05T02:26:06.438Z,0.00
2023-07-05T02:27:06.422Z,0.00
2023-07-05T02:28:06.456Z,0.00
2023-07-05T02:29:06.348Z,0.00
2023-07-05T02:30:06.380Z,0.00
2023-07-05T02:31:06.340Z,0.00
2023-07-05T02:32:06.252Z,0.00
2023-07-05T02:33:06.333Z,0.00
2023-07-05T02:34:06.245Z,0.00
2023-07-05T02:35:06.175Z,0.00
2023-07-05T02:36:06.144Z,0.00
2023-07-05T02:37:06.107Z,0.00
2023-07-05T02:38:06.074Z,0.00
2023-07-05T02:39:06.057Z,0.00
2023-07-05T02:40:06.094Z,0.00
2023-07-05T02:41:06.002Z,0.00
2023-07-05T02:42:06.048Z,0.00
2023-07-05T02:43:05.920Z,5.63
2023-07-05T02:44:05.958Z,5.63
2023-07-05T02:45:05.856Z,5.63
2023-07-05T02:46:05.859Z,5.63
2023-07-05T02:47:05.792Z,5.63
2023-07-05T02:48:05.811Z,5.63
2023-07-05T02:49:05.745Z,5.63
2023-07-05T02:50:05.769Z,5.63
2023-07-05T02:51:05.680Z,5.63
2023-07-05T02:52:05.648Z,11.25
2023-07-05T02:53:05.621Z,11.25
2023-07-05T02:54:05.589Z,11.25
2023-07-05T02:55:05.552Z,11.25
2023-07-05T02:56:05.593Z,11.25
2023-07-05T02:57:05.502Z,11.25
2023-07-05T02:58:05.536Z,16.88
2023-07-05T02:59:05.445Z,16.88
2023-07-05T03:00:05.394Z,16.88
2023-07-05T03:01:05.364Z,22.50
2023-07-05T03:02:05.449Z,22.50
2023-07-05T03:03:05.440Z,22.50
2023-07-05T03:04:05.363Z,28.13
2023-07-05T03:05:05.247Z,28.13
2023-07-05T03:06:05.238Z,28.13
2023-07-05T03:07:05.180Z,33.75
2023-07-05T03:08:05.164Z,33.75
2023-07-05T03:09:05.177Z,39.38
2023-07-05T03:10:05.109Z,39.38
2023-07-05T03:11:05.058Z,39.38
2023-07-05T03:12:05.020Z,45.00
2023-07-05T03:13:05.011Z,45.00
2023-07-05T03:14:05.099Z,45.00
2023-07-05T03:15:04.945Z,45.00
2023-07-05T03:16:04.910Z,50.63
2023-07-05T03:17:04.907Z,50.63
2023-07-05T03:18:04.878Z,50.63
2023-07-05T03:19:04.890Z,50.63
2023-07-05T03:20:04.781Z,50.63
2023-07-05T03:21:04.771Z,56.25
2023-07-05T03:22:04.722Z,56.25
2023-07-05T03:23:04.709Z,61.88
2023-07-05T03:24:04.677Z,61.88
2023-07-05T03:25:04.708Z,67.50
2023-07-05T03:26:04.604Z,67.50
2023-07-05T03:27:04.566Z,73.13
2023-07-05T03:28:04.596Z,73.13
2023-07-05T03:29:04.526Z,73.13
2023-07-05T03:30:04.620Z,78.75
2023-07-05T03:31:04.534Z,78.75
2023-07-05T03:32:04.458Z,84.38
2023-07-05T03:33:04.483Z,90.00
2023-07-05T03:34:04.348Z,90.00
2023-07-05T03:35:04.404Z,95.63
2023-07-05T03:36:04.306Z,95.63
2023-07-05T03:37:04.326Z,95.63
2023-07-05T03:38:04.246Z,101.25
2023-07-05T03:39:04.209Z,101.25
2023-07-05T03:40:04.220Z,101.25
2023-07-05T03:41:04.216Z,106.88
2023-07-05T03:42:04.114Z,106.88
2023-07-05T03:43:04.092Z,112.50
2023-07-05T03:44:04.058Z,112.50
2023-07-05T03:45:04.029Z,112.50
2023-07-05T03:46:04.194Z,112.50
2023-07-05T03:47:03.968Z,118.13
2023-07-05T03:48:03.966Z,118.13
2023-07-05T03:49:06.851Z,118.13
2023-07-05T03:50:03.883Z,118.13
2023-07-05T03:51:03.848Z,118.13
2023-07-05T03:52:03.880Z,118.13
2023-07-05T03:53:03.814Z,123.75
2023-07-05T03:54:03.751Z,123.75
2023-07-05T03:55:03.739Z,129.38
2023-07-05T03:56:03.699Z,129.38
2023-07-05T03:57:03.833Z,135.00
2023-07-05T03:58:03.630Z,140.63
2023-07-05T03:59:03.610Z,140.63
2023-07-05T04:00:03.571Z,146.25
2023-07-05T04:01:03.556Z,146.25
2023-07-05T04:02:03.541Z,151.88
2023-07-05T04:03:03.601Z,151.88
2023-07-05T04:04:03.508Z,157.50
2023-07-05T04:05:03.417Z,157.50
2023-07-05T04:06:03.392Z,157.50
2023-07-05T04:07:03.496Z,157.50
2023-07-05T04:08:03.360Z,151.88
2023-07-05T04:09:03.322Z,140.63
2023-07-05T04:10:03.277Z,135.00
2023-07-05T04:11:03.242Z,135.00
2023-07-05T04:12:03.294Z,135.00
2023-07-05T04:13:03.187Z,140.63
2023-07-05T04:14:03.274Z,146.25
2023-07-05T04:15:03.121Z,151.88
2023-07-05T04:16:03.138Z,157.50
2023-07-05T04:17:03.187Z,163.13
2023-07-05T04:18:03.093Z,168.75
2023-07-05T04:19:03.052Z,168.75
2023-07-05T04:20:02.996Z,174.38
2023-07-05T04:21:02.996Z,180.00
2023-07-05T04:22:02.918Z,185.63
2023-07-05T04:23:03.086Z,191.25
2023-07-05T04:24:02.856Z,196.88
2023-07-05T04:25:02.872Z,202.50
2023-07-05T04:26:02.862Z,213.75
2023-07-05T04:27:02.820Z,225.00
2023-07-05T04:28:02.744Z,236.25
2023-07-05T04:29:02.794Z,236.25
2023-07-05T04:30:02.682Z,241.88
2023-07-05T04:31:02.710Z,241.88
2023-07-05T04:32:02.640Z,247.50
2023-07-05T04:33:02.715Z,247.50
2023-07-05T04:34:02.642Z,241.88
2023-07-05T04:35:02.594Z,236.25
2023-07-05T04:36:02.531Z,225.00
2023-07-05T04:37:02.503Z,225.00
2023-07-05T04:38:02.480Z,213.75
2023-07-05T04:39:02.495Z,208.13
2023-07-05T04:40:03.479Z,208.13
2023-07-05T04:41:02.389Z,208.13
2023-07-05T04:42:02.412Z,208.13
2023-07-05T04:43:02.340Z,208.13
2023-07-05T04:44:02.371Z,202.50
2023-07-05T04:45:02.249Z,208.13
2023-07-05T04:46:02.282Z,191.25
2023-07-05T04:47:02.192Z,185.63
2023-07-05T04:48:02.213Z,180.00
2023-07-05T04:49:02.188Z,180.00
2023-07-05T04:50:02.114Z,185.63
2023-07-05T04:51:02.082Z,185.63
2023-07-05T04:52:02.058Z,180.00
2023-07-05T04:53:02.023Z,174.38
2023-07-05T04:54:02.112Z,163.13
2023-07-05T04:55:01.979Z,151.88
2023-07-05T04:56:01.951Z,146.25
2023-07-05T04:57:01.904Z,146.25
2023-07-05T04:58:01.898Z,151.88
2023-07-05T04:59:01.852Z,157.50
2023-07-05T05:00:01.979Z,163.13
2023-07-05T05:01:01.892Z,163.13
2023-07-05T05:02:02.021Z,168.75
2023-07-05T05:03:01.756Z,168.75
2023-07-05T05:04:01.746Z,168.75
2023-07-05T05:05:01.689Z,174.38
2023-07-05T05:06:01.709Z,180.00
2023-07-05T05:07:01.628Z,196.88
2023-07-05T05:08:01.604Z,213.75
2023-07-05T05:09:01.567Z,213.75
2023-07-05T05:10:01.543Z,208.13
2023-07-05T05:11:01.632Z,202.50
2023-07-05T05:12:01.481Z,208.13
2023-07-05T05:13:01.459Z,208.13
2023-07-05T05:14:01.535Z,208.13
2023-07-05T05:15:01.391Z,196.88
2023-07-05T05:16:01.469Z,185.63
2023-07-05T05:17:01.405Z,185.63
2023-07-05T05:18:01.408Z,168.75
2023-07-05T05:19:01.287Z,157.50
2023-07-05T05:20:01.260Z,151.88
2023-07-05T05:21:01.225Z,151.88
2023-07-05T05:22:01.296Z,151.88
2023-07-05T05:23:01.179Z,163.13
2023-07-05T05:24:01.226Z,174.38
2023-07-05T05:25:01.143Z,191.25
2023-07-05T05:26:01.136Z,219.38
2023-07-05T05:27:01.061Z,253.13
2023-07-05T05:28:01.128Z,275.63
2023-07-05T05:29:00.997Z,281.25
2023-07-05T05:30:07.395Z,270.00
2023-07-05T05:31:00.979Z,258.75
2023-07-05T05:32:00.933Z,264.38
2023-07-05T05:33:00.923Z,264.38
2023-07-05T05:34:00.910Z,270.00
2023-07-05T05:35:00.833Z,281.25
2023-07-05T05:36:00.809Z,275.63
2023-07-05T05:37:00.776Z,258.75
2023-07-05T05:38:00.749Z,264.38
2023-07-05T05:39:00.710Z,275.63
2023-07-05T05:40:00.760Z,286.88
2023-07-05T05:41:00.698Z,298.13
2023-07-05T05:42:00.630Z,309.38
2023-07-05T05:43:00.604Z,320.63
2023-07-05T05:44:00.584Z,320.63
2023-07-05T05:45:00.560Z,303.75
2023-07-05T05:46:00.631Z,275.63
2023-07-05T05:47:00.585Z,258.75
2023-07-05T05:48:00.495Z,253.13
2023-07-05T05:49:00.455Z,258.75
2023-07-05T05:50:00.404Z,309.38
2023-07-05T05:51:00.386Z,348.75
2023-07-05T05:52:00.406Z,382.50
2023-07-05T05:53:00.345Z,371.25
2023-07-05T05:54:00.304Z,331.88
2023-07-05T05:55:00.280Z,281.25
2023-07-05T05:56:00.256Z,247.50
2023-07-05T05:57:00.223Z,219.38
2023-07-05T05:58:00.277Z,202.50
2023-07-05T05:59:00.171Z,196.88
2023-07-05T06:00:00.168Z,202.50
2023-07-05T06:01:00.117Z,202.50
2023-07-05T06:02:00.105Z,202.50
2023-07-05T06:03:00.141Z,208.13
2023-07-05T06:04:00.099Z,236.25
2023-07-05T06:05:00.024Z,253.13
2023-07-05T06:05:59.975Z,264.38
2023-07-05T06:06:59.943Z,270.00
2023-07-05T06:07:59.921Z,264.38
2023-07-05T06:08:59.940Z,247.50
2023-07-05T06:10:00.023Z,230.63
2023-07-05T06:10:59.836Z,225.00
2023-07-05T06:11:59.818Z,225.00
2023-07-05T06:12:59.796Z,225.00
2023-07-05T06:14:00.580Z,219.38
2023-07-05T06:14:59.738Z,208.13
2023-07-05T06:16:12.057Z,196.88
2023-07-05T06:16:59.712Z,196.88
2023-07-05T06:17:59.714Z,208.13
2023-07-05T06:18:59.621Z,225.00
2023-07-05T06:19:59.656Z,230.63
2023-07-05T06:20:59.699Z,247.50
2023-07-05T06:21:59.539Z,275.63
2023-07-05T06:22:59.511Z,292.50
2023-07-05T06:23:59.500Z,315.00
2023-07-05T06:24:59.529Z,331.88
2023-07-05T06:25:59.509Z,326.25
2023-07-05T06:26:59.414Z,315.00
2023-07-05T06:27:59.373Z,309.38
2023-07-05T06:28:59.364Z,298.13
2023-07-05T06:29:59.329Z,281.25
2023-07-05T06:30:59.393Z,253.13
2023-07-05T06:31:59.268Z,225.00
2023-07-05T06:32:59.270Z,202.50
2023-07-05T06:33:59.271Z,196.88
2023-07-05T06:34:59.336Z,202.50
2023-07-05T06:35:59.158Z,208.13
2023-07-05T06:36:59.189Z,208.13
2023-07-05T06:37:59.116Z,196.88
2023-07-05T06:38:59.082Z,202.50
2023-07-05T06:39:59.091Z,225.00
2023-07-05T06:40:59.066Z,225.00
2023-07-05T06:41:59.003Z,236.25
2023-07-05T06:42:59.024Z,247.50
2023-07-05T06:43:58.949Z,258.75
2023-07-05T06:44:58.924Z,264.38
2023-07-05T06:45:58.910Z,270.00
2023-07-05T06:46:58.922Z,298.13
2023-07-05T06:47:58.918Z,343.13
2023-07-05T06:48:58.830Z,399.38
2023-07-05T06:49:58.787Z,472.50
2023-07-05T06:50:58.761Z,534.38
2023-07-05T06:51:58.748Z,590.63
2023-07-05T06:53:16.585Z,618.75
2023-07-05T06:53:58.678Z,635.63
2023-07-05T06:54:58.649Z,652.50
2023-07-05T06:55:58.625Z,686.25
2023-07-05T06:56:58.637Z,703.13
2023-07-05T06:57:58.581Z,720.00
2023-07-05T06:58:58.595Z,725.63
2023-07-05T06:59:58.519Z,731.25
2023-07-05T07:00:58.503Z,748.13
2023-07-05T07:01:58.511Z,776.25
2023-07-05T07:02:58.490Z,776.25
2023-07-05T07:03:58.455Z,781.88
2023-07-05T07:04:58.464Z,765.00
2023-07-05T07:05:58.375Z,725.63
2023-07-05T07:06:58.347Z,725.63
2023-07-05T07:07:58.339Z,748.13
2023-07-05T07:08:58.293Z,753.75
2023-07-05T07:09:58.276Z,753.75
2023-07-05T07:10:58.300Z,770.63
2023-07-05T07:11:58.230Z,776.25
2023-07-05T07:12:58.198Z,759.38
2023-07-05T07:13:58.209Z,708.75
2023-07-05T07:14:58.148Z,613.13
2023-07-05T07:15:58.161Z,551.25
2023-07-05T07:16:58.154Z,534.38
2023-07-05T07:17:58.097Z,545.63
2023-07-05T07:18:58.074Z,556.88
2023-07-05T07:19:58.032Z,590.63
2023-07-05T07:20:58.028Z,618.75
2023-07-05T07:21:58.046Z,624.38
2023-07-05T07:22:57.988Z,641.25
2023-07-05T07:23:58.010Z,663.75
2023-07-05T07:24:57.908Z,669.38
2023-07-05T07:25:57.935Z,675.00
2023-07-05T07:26:57.942Z,658.13
2023-07-05T07:27:57.910Z,635.63
2023-07-05T07:28:57.809Z,601.88
2023-07-05T07:29:57.790Z,573.75
2023-07-05T07:30:57.787Z,551.25
2023-07-05T07:31:57.763Z,540.00
2023-07-05T07:32:57.767Z,517.50
2023-07-05T07:33:57.788Z,500.63
2023-07-05T07:34:57.677Z,489.38
2023-07-05T07:35:57.658Z,466.88
2023-07-05T07:36:57.629Z,455.63
2023-07-05T07:37:57.619Z,455.63
2023-07-05T07:38:57.583Z,455.63
2023-07-05T07:39:57.628Z,472.50
2023-07-05T07:40:57.566Z,483.75
2023-07-05T07:41:57.510Z,483.75
2023-07-05T07:42:57.506Z,472.50
2023-07-05T07:43:57.479Z,461.25
2023-07-05T07:44:57.446Z,455.63
2023-07-05T07:45:57.495Z,455.63
2023-07-05T07:46:57.403Z,450.00
2023-07-05T07:47:57.401Z,444.38
2023-07-05T07:48:57.356Z,427.50
2023-07-05T07:49:57.338Z,433.13
2023-07-05T07:50:57.373Z,455.63
2023-07-05T07:51:57.346Z,489.38
2023-07-05T07:52:57.258Z,528.75
2023-07-05T07:53:57.243Z,540.00
2023-07-05T07:54:57.219Z,540.00
2023-07-05T07:55:57.182Z,517.50
2023-07-05T07:56:57.170Z,478.13
2023-07-05T07:57:57.265Z,450.00
2023-07-05T07:58:57.136Z,438.75
2023-07-05T07:59:57.099Z,433.13
2023-07-05T08:00:57.185Z,421.88
2023-07-05T08:01:57.066Z,405.00
2023-07-05T08:02:57.541Z,376.88
2023-07-05T08:03:57.185Z,365.63
2023-07-05T08:04:57.124Z,360.00
2023-07-05T08:05:56.957Z,348.75
2023-07-05T08:06:56.926Z,343.13
2023-07-05T08:07:56.928Z,360.00
2023-07-05T08:08:56.875Z,388.13
2023-07-05T08:09:56.908Z,405.00
2023-07-05T08:10:56.935Z,421.88
2023-07-05T08:11:56.808Z,416.25
2023-07-05T08:12:56.785Z,416.25
2023-07-05T08:13:56.848Z,427.50
2023-07-05T08:14:56.756Z,427.50
2023-07-05T08:15:56.826Z,421.88
2023-07-05T08:16:56.696Z,416.25
2023-07-05T08:17:56.744Z,421.88
2023-07-05T08:18:56.635Z,444.38
2023-07-05T08:19:56.621Z,438.75
2023-07-05T08:20:56.712Z,433.13
2023-07-05T08:21:56.621Z,433.13
2023-07-05T08:22:56.560Z,438.75
2023-07-05T08:23:56.645Z,450.00
2023-07-05T08:24:56.492Z,461.25
2023-07-05T08:25:56.472Z,472.50
2023-07-05T08:26:56.513Z,495.00
2023-07-05T08:27:56.485Z,523.13
2023-07-05T08:28:56.401Z,562.50
2023-07-05T08:29:56.386Z,607.50
2023-07-05T08:30:56.717Z,641.25
2023-07-05T08:31:56.417Z,663.75
2023-07-05T08:32:56.408Z,658.13
2023-07-05T08:33:56.429Z,630.00
2023-07-05T08:34:56.261Z,613.13
2023-07-05T08:35:56.255Z,607.50
2023-07-05T08:36:56.220Z,590.63
2023-07-05T08:37:56.203Z,534.38
2023-07-05T08:38:56.215Z,466.88
2023-07-05T08:39:56.207Z,421.88
2023-07-05T08:40:56.205Z,393.75
2023-07-05T08:41:56.096Z,376.88
2023-07-05T08:42:56.091Z,376.88
2023-07-05T08:43:56.056Z,388.13
2023-07-05T08:44:56.022Z,376.88
2023-07-05T08:45:56.095Z,365.63
2023-07-05T08:46:56.118Z,354.38
2023-07-05T08:47:56.012Z,343.13
2023-07-05T08:48:55.938Z,343.13
2023-07-05T08:49:55.906Z,365.63
2023-07-05T08:51:13.312Z,388.13
2023-07-05T08:51:55.997Z,399.38
2023-07-05T08:52:55.844Z,382.50
2023-07-05T08:53:55.805Z,354.38
2023-07-05T08:54:55.794Z,348.75
2023-07-05T08:55:55.762Z,348.75
2023-07-05T08:56:55.754Z,354.38
2023-07-05T08:57:55.776Z,410.63
2023-07-05T08:58:55.699Z,489.38
2023-07-05T08:59:55.664Z,534.38
2023-07-05T09:00:55.839Z,534.38
2023-07-05T09:01:55.824Z,556.88
2023-07-05T09:02:55.631Z,579.38
2023-07-05T09:03:55.720Z,596.25
2023-07-05T09:04:55.556Z,618.75
2023-07-05T09:05:55.534Z,613.13
2023-07-05T09:06:55.504Z,607.50
2023-07-05T09:07:55.503Z,624.38
2023-07-05T09:08:55.475Z,646.88
2023-07-05T09:09:55.476Z,703.13
2023-07-05T09:10:55.777Z,742.50
2023-07-05T09:11:55.392Z,753.75
2023-07-05T09:12:55.483Z,742.50
2023-07-05T09:13:55.451Z,708.75
2023-07-05T09:14:55.328Z,708.75
2023-07-05T09:15:55.295Z,742.50
2023-07-05T09:16:55.303Z,748.13
2023-07-05T09:17:55.353Z,703.13
2023-07-05T09:18:55.224Z,675.00
2023-07-05T09:19:55.210Z,680.63
2023-07-05T09:20:55.472Z,691.88
2023-07-05T09:21:55.234Z,731.25
2023-07-05T09:22:55.198Z,781.88
2023-07-05T09:23:55.163Z,843.75
2023-07-05T09:24:55.088Z,900.00
2023-07-05T09:25:56.235Z,945.00
2023-07-05T09:26:55.046Z,922.50
2023-07-05T09:27:55.089Z,838.13
2023-07-05T09:28:54.993Z,787.50
2023-07-05T09:29:54.980Z,798.75
2023-07-05T09:30:54.993Z,759.38
2023-07-05T09:31:54.919Z,748.13
2023-07-05T09:32:54.956Z,753.75
2023-07-05T09:33:54.951Z,720.00
2023-07-05T09:34:54.867Z,714.38
2023-07-05T09:35:55.069Z,742.50
2023-07-05T09:36:54.866Z,714.38
2023-07-05T09:37:54.815Z,663.75
2023-07-05T09:38:54.789Z,646.88
2023-07-05T09:39:54.824Z,686.25
2023-07-05T09:40:54.742Z,765.00
2023-07-05T09:41:54.716Z,832.50
2023-07-05T09:42:54.749Z,843.75
2023-07-05T09:43:54.678Z,804.38
2023-07-05T09:44:54.658Z,753.75
2023-07-05T09:45:54.976Z,736.88
2023-07-05T09:46:54.652Z,748.13
2023-07-05T09:47:54.680Z,798.75
2023-07-05T09:48:54.680Z,883.13
2023-07-05T09:50:03.911Z,911.25
2023-07-05T09:50:54.514Z,956.25
2023-07-05T09:51:54.485Z,1006.88
2023-07-05T09:52:54.470Z,1012.50
2023-07-05T09:53:54.507Z,973.13
2023-07-05T09:54:54.428Z,939.38
2023-07-05T09:55:54.556Z,894.38
2023-07-05T09:56:55.822Z,849.38
2023-07-05T09:57:54.472Z,883.13
2023-07-05T09:58:54.553Z,928.13
2023-07-05T09:59:54.342Z,900.00
2023-07-05T10:00:54.306Z,877.50
2023-07-05T10:01:54.322Z,911.25
2023-07-05T10:02:54.390Z,815.63
2023-07-05T10:03:54.363Z,658.13
2023-07-05T10:04:54.298Z,613.13
2023-07-05T10:05:54.475Z,652.50
2023-07-05T10:06:54.197Z,697.50
2023-07-05T10:07:54.286Z,748.13
2023-07-05T10:08:54.217Z,781.88
2023-07-05T10:09:54.114Z,815.63
2023-07-05T10:10:54.102Z,821.25
2023-07-05T10:11:54.114Z,804.38
2023-07-05T10:12:54.092Z,798.75
2023-07-05T10:13:54.056Z,815.63
2023-07-05T10:14:54.070Z,798.75
2023-07-05T10:15:54.235Z,776.25
2023-07-05T10:16:54.008Z,759.38
2023-07-05T10:17:54.145Z,742.50
2023-07-05T10:18:53.933Z,714.38
2023-07-05T10:19:53.915Z,686.25
2023-07-05T10:20:53.965Z,669.38
2023-07-05T10:21:53.885Z,663.75
2023-07-05T10:22:53.859Z,658.13
2023-07-05T10:23:53.834Z,669.38
2023-07-05T10:24:53.819Z,714.38
2023-07-05T10:25:54.107Z,759.38
2023-07-05T10:26:53.832Z,787.50
2023-07-05T10:27:53.764Z,832.50
2023-07-05T10:28:53.735Z,877.50
2023-07-05T10:29:53.714Z,916.88
2023-07-05T10:30:53.733Z,945.00
2023-07-05T10:31:53.724Z,950.63
2023-07-05T10:32:53.732Z,945.00
2023-07-05T10:33:53.655Z,911.25
2023-07-05T10:34:53.623Z,911.25
2023-07-05T10:35:53.839Z,939.38
2023-07-05T10:36:53.624Z,967.50
2023-07-05T10:37:53.561Z,945.00
2023-07-05T10:38:53.599Z,877.50
2023-07-05T10:39:53.521Z,849.38
2023-07-05T10:40:53.570Z,793.13
2023-07-05T10:41:53.469Z,731.25
2023-07-05T10:42:54.334Z,635.63
2023-07-05T10:43:53.432Z,556.88
2023-07-05T10:44:53.448Z,517.50
2023-07-05T10:45:53.677Z,523.13
2023-07-05T10:46:53.431Z,590.63
2023-07-05T10:47:53.636Z,669.38
2023-07-05T10:48:53.316Z,691.88
2023-07-05T10:49:53.317Z,691.88
2023-07-05T10:50:53.490Z,703.13
2023-07-05T10:51:53.254Z,697.50
2023-07-05T10:52:53.304Z,742.50
2023-07-05T10:53:53.216Z,849.38
2023-07-05T10:54:53.224Z,911.25
2023-07-05T10:55:53.379Z,945.00
2023-07-05T10:56:53.156Z,978.75
2023-07-05T10:57:53.130Z,990.00
2023-07-05T10:58:53.202Z,978.75
2023-07-05T10:59:53.093Z,967.50
2023-07-05T11:00:53.237Z,950.63
2023-07-05T11:01:53.112Z,939.38
2023-07-05T11:02:53.057Z,945.00
2023-07-05T11:03:53.022Z,961.88
2023-07-05T11:04:53.096Z,961.88
2023-07-05T11:05:53.033Z,950.63
2023-07-05T11:06:52.959Z,956.25
2023-07-05T11:07:52.926Z,956.25
2023-07-05T11:08:52.901Z,950.63
2023-07-05T11:09:52.913Z,956.25
2023-07-05T11:10:53.283Z,956.25
2023-07-05T11:11:52.840Z,945.00
2023-07-05T11:12:52.822Z,939.38
2023-07-05T11:13:52.883Z,928.13
2023-07-05T11:14:52.785Z,922.50
2023-07-05T11:15:54.250Z,933.75
2023-07-05T11:16:52.824Z,933.75
2023-07-05T11:17:52.741Z,928.13
2023-07-05T11:18:52.701Z,939.38
2023-07-05T11:19:52.692Z,933.75
2023-07-05T11:20:52.858Z,922.50
2023-07-05T11:21:52.631Z,939.38
2023-07-05T11:22:52.727Z,939.38
2023-07-05T11:23:52.602Z,939.38
2023-07-05T11:24:52.577Z,933.75
2023-07-05T11:25:52.556Z,933.75
2023-07-05T11:26:52.539Z,945.00
2023-07-05T11:27:52.564Z,961.88
2023-07-05T11:28:52.503Z,961.88
2023-07-05T11:29:52.510Z,961.88
2023-07-05T11:30:52.490Z,945.00
2023-07-05T11:31:52.473Z,911.25
2023-07-05T11:32:52.442Z,877.50
2023-07-05T11:33:52.479Z,883.13
2023-07-05T11:34:52.392Z,905.63
2023-07-05T11:35:52.355Z,933.75
2023-07-05T11:36:52.339Z,945.00
2023-07-05T11:37:52.322Z,956.25
2023-07-05T11:38:52.300Z,956.25
2023-07-05T11:39:52.347Z,939.38
2023-07-05T11:40:52.261Z,945.00
2023-07-05T11:41:52.235Z,961.88
2023-07-05T11:42:52.220Z,973.13
2023-07-05T11:43:52.203Z,984.38
2023-07-05T11:44:52.188Z,995.63
2023-07-05T11:45:52.224Z,984.38
2023-07-05T11:46:52.139Z,984.38
2023-07-05T11:47:52.155Z,995.63
2023-07-05T11:48:52.109Z,990.00
2023-07-05T11:49:52.088Z,978.75
2023-07-05T11:50:52.136Z,978.75
2023-07-05T11:51:52.094Z,973.13
2023-07-05T11:52:52.035Z,973.13
2023-07-05T11:53:52.007Z,939.38
2023-07-05T11:54:51.980Z,933.75
2023-07-05T11:55:51.968Z,990.00
2023-07-05T11:56:51.952Z,1018.13
2023-07-05T11:57:51.979Z,990.00
2023-07-05T11:58:51.913Z,871.88
2023-07-05T11:59:51.911Z,860.63
2023-07-05T12:00:51.908Z,922.50
2023-07-05T12:01:51.905Z,894.38
2023-07-05T12:02:51.872Z,703.13
2023-07-05T12:03:51.926Z,551.25
2023-07-05T12:04:51.791Z,534.38
2023-07-05T12:05:51.806Z,630.00
2023-07-05T12:06:51.754Z,703.13
2023-07-05T12:07:51.749Z,714.38
2023-07-05T12:08:51.714Z,793.13
2023-07-05T12:09:51.751Z,826.88
2023-07-05T12:10:51.681Z,849.38
2023-07-05T12:11:51.670Z,703.13
2023-07-05T12:12:51.663Z,776.25
2023-07-05T12:13:51.629Z,894.38
2023-07-05T12:14:51.602Z,922.50
2023-07-05T12:15:51.681Z,894.38
2023-07-05T12:16:51.554Z,877.50
2023-07-05T12:17:51.570Z,871.88
2023-07-05T12:18:51.528Z,781.88
2023-07-05T12:19:51.493Z,765.00
2023-07-05T12:20:51.525Z,838.13
2023-07-05T12:21:51.519Z,871.88
2023-07-05T12:22:51.444Z,888.75
2023-07-05T12:23:51.412Z,922.50
2023-07-05T12:24:51.396Z,967.50
2023-07-05T12:25:51.395Z,973.13
2023-07-05T12:26:51.368Z,956.25
2023-07-05T12:27:51.398Z,933.75
2023-07-05T12:28:51.319Z,905.63
2023-07-05T12:29:51.306Z,956.25
2023-07-05T12:30:51.304Z,939.38
2023-07-05T12:31:51.347Z,945.00
2023-07-05T12:32:51.285Z,956.25
2023-07-05T12:33:51.277Z,956.25
2023-07-05T12:34:51.200Z,945.00
2023-07-05T12:35:51.278Z,894.38
2023-07-05T12:36:51.176Z,815.63
2023-07-05T12:37:51.145Z,669.38
2023-07-05T12:38:51.199Z,523.13
2023-07-05T12:39:51.109Z,438.75